M I D A S
Marine Information and Data Acquisition System
Tripno 665 of the Zeeleeuw from 2004-03-11 07:14:48 to 2004-03-11 15:54:52
Back to CruiseResearch ActivitiesStationsMapUnderway DataData graphs

EquipmentUnitsComment
TimeDGPSUTC
LatitudeDGPSDM.mWGS84
LongitudeDGPSDM.mWGS84
HeadingGyrodeg 
SOGDGPSknotsSpeed over ground
COGDGPSdegCourse over ground
DepthEcho soundermeters200 kHz
Missing or incorrect values are displayed as -999
Navigation data collected by the RV Zeeleeuw from 2004-03-11 07:14:48 to 2004-03-11 15:54:52
                                                                                    Next 1000 lines
Time Latitude Longitude Heading SOG COG Depth
2004-03-11 07:14:54 51°13.593 2°56.108 125.3   168 6.7
2004-03-11 07:15:00 51°13.592 2°56.108 125.4   175 6.7
2004-03-11 07:15:02 51°13.592 2°56.108 125.5   240 6.7
2004-03-11 07:15:09 51°13.592 2°56.108 125.9   350 6.7
2004-03-11 07:15:14 51°13.592 2°56.108 126.2   228 -999
2004-03-11 07:15:18 51°13.592 2°56.108 126.3   51 6.7
2004-03-11 07:15:25 51°13.592 2°56.108 126.4   51 6.7
2004-03-11 07:15:30 51°13.592 2°56.108 126.4   51 6.7
2004-03-11 07:15:34 51°13.592 2°56.109 126.3   52 6.7
2004-03-11 07:15:38 51°13.592 2°56.109 126.3   240 6.7
2004-03-11 07:15:44 51°13.592 2°56.109 126.2   27 6.7
2004-03-11 07:15:49 51°13.592 2°56.109 126.2   24 6.7
2004-03-11 07:15:53 51°13.592 2°56.109 126.4   33 6.7
2004-03-11 07:16:00 51°13.592 2°56.109 126.4   40 6.7
2004-03-11 07:16:04 51°13.592 2°56.109 126.4   53 6.7
2004-03-11 07:16:09 51°13.592 2°56.109 126.4   65 6.7
2004-03-11 07:16:14 51°13.592 2°56.109 126.4   287 6.7
2004-03-11 07:16:18 51°13.592 2°56.109 126.3   278 6.7
2004-03-11 07:16:24 51°13.592 2°56.109 126.2   76 6.8
2004-03-11 07:16:30 51°13.592 2°56.109 126.2   46 6.7
2004-03-11 07:16:34 51°13.592 2°56.109 126.2   68 6.7
2004-03-11 07:16:40 51°13.592 2°56.109 126.2   68 6.7
2004-03-11 07:16:44 51°13.592 2°56.109 126.2   41 6.7
2004-03-11 07:16:49 51°13.592 2°56.109 126.1   38 6.7
2004-03-11 07:16:54 51°13.592 2°56.109 126.1   204 6.7
2004-03-11 07:16:58 51°13.592 2°56.109 126.1   204 6.7
2004-03-11 07:17:04 51°13.592 2°56.109 126   43 6.6
2004-03-11 07:17:09 51°13.592 2°56.109 126   34 6.7
2004-03-11 07:17:14 51°13.592 2°56.109 126   101 6.7
2004-03-11 07:17:20 51°13.592 2°56.109 125.7   136 6.7
2004-03-11 07:17:24 51°13.592 2°56.109 124.9 0.1 148 6.7
2004-03-11 07:17:30 51°13.592 2°56.109 123.4 0.1 181 6.7
2004-03-11 07:17:34 51°13.591 2°56.109 121.9 0.1 181 6.7
2004-03-11 07:17:39 51°13.591 2°56.109 120.4 0.1 191 6.7
2004-03-11 07:17:44 51°13.591 2°56.109 118.7 0.1 200 6.7
2004-03-11 07:17:50 51°13.591 2°56.109 117.5 0.1 223 6.8
2004-03-11 07:17:54 51°13.591 2°56.108 115.9 0.2 262 6.8
2004-03-11 07:18:00 51°13.591 2°56.106 115.4 0.2 262 6.8
2004-03-11 07:18:04 51°13.592 2°56.104 115.4 1.3 293 6.8
2004-03-11 07:18:10 51°13.593 2°56.099 116 1.7 293 6.8
2004-03-11 07:18:14 51°13.594 2°56.096 116.8 2 294 -999
2004-03-11 07:18:20 51°13.596 2°56.09 118 2.6 297 -999
2004-03-11 07:18:25 51°13.598 2°56.084 119 2.9 298 -999
2004-03-11 07:18:30 51°13.601 2°56.078 120 3.1 298 -999
2004-03-11 07:18:35 51°13.603 2°56.071 120.4 3.5 299 -999
2004-03-11 07:18:40 51°13.606 2°56.064 120.6 3.8 299 -999
2004-03-11 07:18:45 51°13.609 2°56.055 120.8 4.1 299 -999
2004-03-11 07:18:50 51°13.611 2°56.047 121.1 4.3 299 -999
2004-03-11 07:18:55 51°13.614 2°56.038 121.2 4.6 299 -999
2004-03-11 07:19:00 51°13.617 2°56.029 121.4 4.8 299 -999
2004-03-11 07:19:05 51°13.621 2°56.019 121.7 4.9 299 -999
2004-03-11 07:19:10 51°13.624 2°56.009 121.6 5 299 -999
2004-03-11 07:19:15 51°13.627 2°55.999 121 5.1 298 -999
2004-03-11 07:19:20 51°13.631 2°55.989 120.4 5.1 298 -999
2004-03-11 07:19:25 51°13.634 2°55.979 119.3 5.2 297 -999
2004-03-11 07:19:30 51°13.637 2°55.969 118.4 5.2 297 -999
2004-03-11 07:19:36 51°13.641 2°55.956 117.3 5.3 296 -999
2004-03-11 07:19:40 51°13.643 2°55.948 116 5.3 295 -999
2004-03-11 07:19:45 51°13.646 2°55.937 114.5 5.4 294 -999
2004-03-11 07:19:50 51°13.649 2°55.926 112.6 5.4 292 -999
2004-03-11 07:19:55 51°13.652 2°55.914 110.4 5.5 290 -999
2004-03-11 07:20:00 51°13.654 2°55.902 108.9 5.6 289 -999
2004-03-11 07:20:05 51°13.656 2°55.89 107.4 5.7 287 -999
2004-03-11 07:20:10 51°13.658 2°55.878 106 5.7 286 -999
2004-03-11 07:20:16 51°13.661 2°55.863 104.2 5.7 285 -999
2004-03-11 07:20:20 51°13.662 2°55.853 102.3 5.7 282 -999
2004-03-11 07:20:25 51°13.663 2°55.841 100.5 5.7 281 -999
2004-03-11 07:20:30 51°13.664 2°55.829 99.2 5.6 280 -999
2004-03-11 07:20:35 51°13.665 2°55.816 96.9 5.6 278 -999
2004-03-11 07:20:40 51°13.666 2°55.805 95.2 5.3 276 -999
2004-03-11 07:20:45 51°13.666 2°55.794 92.8 4.9 275 -999
2004-03-11 07:20:50 51°13.667 2°55.786 90.4 4.3 273 -999
2004-03-11 07:20:55 51°13.667 2°55.779 87.3 3.6 271 -999
2004-03-11 07:21:00 51°13.667 2°55.774 84 2.9 271 9.5
2004-03-11 07:21:04 51°13.667 2°55.772 78.8 2.1 269 9.6
2004-03-11 07:21:08 51°13.667 2°55.77 74.1 1 279 9.8
2004-03-11 07:21:14 51°13.667 2°55.769 68.8 0.6 296 9.9
2004-03-11 07:21:18 51°13.668 2°55.769 63.1 0.6 5 9.9
2004-03-11 07:21:25 51°13.671 2°55.771 56.6 1.1 26 10.1
2004-03-11 07:21:30 51°13.674 2°55.772 49.3 1.5 25 10.2
2004-03-11 07:21:34 51°13.676 2°55.773 41.8 1.9 24 10.7
2004-03-11 07:21:40 51°13.68 2°55.775 34.1 1.8 19 11.3
2004-03-11 07:21:44 51°13.682 2°55.776 26.7 2.2 13 12.6
2004-03-11 07:21:50 51°13.686 2°55.776 19.6 2.7 6 12.9
2004-03-11 07:21:54 51°13.689 2°55.776 12.6 2.8 3 13
2004-03-11 07:22:00 51°13.695 2°55.774 6.8 3.1 353 13.2
2004-03-11 07:22:04 51°13.699 2°55.772 357.4 4 342 13.3
2004-03-11 07:22:09 51°13.704 2°55.768 348.1 4.3 337 13.2
2004-03-11 07:22:14 51°13.709 2°55.762 338.9 4.3 327 13
2004-03-11 07:22:18 51°13.712 2°55.758 333.2 4.2 327 12.5
2004-03-11 07:22:24 51°13.718 2°55.751 330.1 4.4 323 12
2004-03-11 07:22:30 51°13.724 2°55.744 328.5 4.4 323 10.7
2004-03-11 07:22:34 51°13.728 2°55.739 327.3 4.5 322 9.9
2004-03-11 07:22:38 51°13.732 2°55.734 327.1 4.6 322 9.3
2004-03-11 07:22:44 51°13.738 2°55.726 327.4 4.7 322 9.1
2004-03-11 07:22:48 51°13.743 2°55.721 327.7 4.8 324 9.1
2004-03-11 07:22:54 51°13.75 2°55.713 328.3 5.1 323 8.9
2004-03-11 07:23:00 51°13.758 2°55.704 328.9 5.5 325 8.9
2004-03-11 07:23:04 51°13.764 2°55.698 329.9 6.1 326 8.9
2004-03-11 07:23:09 51°13.772 2°55.69 330.6 6.4 327 8.9
2004-03-11 07:23:14 51°13.78 2°55.682 331.3 6.7 328 8.9
2004-03-11 07:23:18 51°13.786 2°55.676 332 7 329 9
2004-03-11 07:23:24 51°13.797 2°55.666 333 7 329 8.9
2004-03-11 07:23:29 51°13.806 2°55.658 333.9 7.4 331 9.3
2004-03-11 07:23:34 51°13.816 2°55.65 334.5 7.6 331 9.4
2004-03-11 07:23:40 51°13.827 2°55.64 334.4 7.7 331 9.3
2004-03-11 07:23:44 51°13.835 2°55.633 333.9 8 331 9.3
2004-03-11 07:23:49 51°13.844 2°55.624 333.9 8.1 331 9.3
2004-03-11 07:23:54 51°13.855 2°55.616 335.4 8.2 333 9
2004-03-11 07:24:00 51°13.867 2°55.606 336.7 8.4 333 9.1
2004-03-11 07:24:05 51°13.878 2°55.597 337.3 8.4 334 9
2004-03-11 07:24:09 51°13.887 2°55.591 337.5 8 334 9.1
2004-03-11 07:24:15 51°13.9 2°55.581 338.2 8.7 334 9.1
2004-03-11 07:24:26 51°13.924 2°55.563 340 0.2 155 9.1
2004-03-11 07:24:30 51°13.933 2°55.557 339.9 5.5 336 9.3
2004-03-11 07:24:34 51°13.942 2°55.551 340.4 9.2 336 9.3
2004-03-11 07:24:40 51°13.956 2°55.541 340.7 8.8 336 9.4
2004-03-11 07:24:45 51°13.967 2°55.533 340.4 8.8 336 9.5
2004-03-11 07:24:50 51°13.979 2°55.526 340.4 8.9 336 9.5
2004-03-11 07:24:56 51°13.992 2°55.516 340.6 8.9 337 9.6
2004-03-11 07:25:00 51°14.001 2°55.509 340.4 8.9 336 9.7
2004-03-11 07:25:06 51°14.015 2°55.5 340.4 8.9 336 10
2004-03-11 07:25:10 51°14.024 2°55.493 340.6 9 336 9.7
2004-03-11 07:25:14 51°14.033 2°55.487 340.4 9 336 10.4
2004-03-11 07:25:20 51°14.047 2°55.477 340.4 9 336 9.8
2004-03-11 07:25:26 51°14.061 2°55.467 340.5 9.1 336 9.9
2004-03-11 07:25:30 51°14.07 2°55.461 340.4 9.1 336 10.5
2004-03-11 07:25:36 51°14.084 2°55.45 339.6 9.1 335 -999
2004-03-11 07:25:41 51°14.095 2°55.442 339.5 9.2 335 -999
2004-03-11 07:25:46 51°14.107 2°55.433 340 9.3 336 -999
2004-03-11 07:25:50 51°14.117 2°55.426 340.3 9.4 335 9.9
2004-03-11 07:25:56 51°14.131 2°55.416 340.3 9.5 335 9.9
2004-03-11 07:26:00 51°14.141 2°55.408 339.6 9.7 334 9.9
2004-03-11 07:26:06 51°14.155 2°55.396 338.2 9.8 333 9.9
2004-03-11 07:26:10 51°14.164 2°55.388 336.7 9.9 331 -999
2004-03-11 07:26:16 51°14.178 2°55.374 335.3 10 331 10
2004-03-11 07:26:21 51°14.19 2°55.362 333.6 10.1 328 -999
2004-03-11 07:26:26 51°14.202 2°55.349 332.2 10.1 327 9.9
2004-03-11 07:26:31 51°14.213 2°55.336 329.2 10.2 323 -999
2004-03-11 07:26:36 51°14.224 2°55.321 326.2 10.2 321 -999
2004-03-11 07:26:41 51°14.235 2°55.306 324.2 10.3 319 -999
2004-03-11 07:26:46 51°14.246 2°55.291 323.3 10.3 319 -999
2004-03-11 07:26:51 51°14.256 2°55.275 321.7 10.5 316 -999
2004-03-11 07:26:56 51°14.267 2°55.258 320 10.9 314 9.7
2004-03-11 07:27:01 51°14.277 2°55.24 318.5 10.9 314 -999
2004-03-11 07:27:06 51°14.288 2°55.221 316.9 11.3 312 9.9
2004-03-11 07:27:10 51°14.296 2°55.205 315.7 11.4 311 -999
2004-03-11 07:27:16 51°14.309 2°55.181 314.9 11.8 310 -999
2004-03-11 07:27:21 51°14.319 2°55.161 314.1 11.9 309 -999
2004-03-11 07:27:26 51°14.329 2°55.14 313.5 11.9 309 -999
2004-03-11 07:27:30 51°14.338 2°55.124 314.6 12 309 9.6
2004-03-11 07:27:36 51°14.351 2°55.099 315.2 12.1 311 10.6
2004-03-11 07:27:41 51°14.362 2°55.079 315.8 12.2 311 10.3
2004-03-11 07:27:46 51°14.373 2°55.059 316.4 12.2 311 9.8
2004-03-11 07:27:50 51°14.382 2°55.042 316.5 12.2 310 9.9
2004-03-11 07:27:56 51°14.395 2°55.016 315.2 12.3 309 9.9
2004-03-11 07:28:00 51°14.402 2°54.999 313.6 12.2 307 10.4
2004-03-11 07:28:06 51°14.413 2°54.974 312.3 11.7 304 9.9
2004-03-11 07:28:10 51°14.419 2°54.957 310.2 11.3 301 10
2004-03-11 07:28:16 51°14.428 2°54.931 308.2 11.3 301 10
2004-03-11 07:28:20 51°14.434 2°54.914 306.5 10.8 297 10.1
2004-03-11 07:28:26 51°14.441 2°54.888 305.2 10.7 295 10.2
2004-03-11 07:28:30 51°14.446 2°54.871 304.6 10.5 295 10.2
2004-03-11 07:28:36 51°14.453 2°54.847 305.1 10.3 294 10.1
2004-03-11 07:28:41 51°14.459 2°54.827 306.5 10.1 296 10.1
2004-03-11 07:28:46 51°14.465 2°54.807 307.2 10.1 296 10.4
2004-03-11 07:28:50 51°14.47 2°54.792 307.8 9.8 297 10.1
2004-03-11 07:28:56 51°14.478 2°54.769 308.6 9.8 297 10.2
2004-03-11 07:29:00 51°14.483 2°54.754 309.1 9.7 298 10.3
2004-03-11 07:29:06 51°14.49 2°54.732 309.9 9.7 298 10.2
2004-03-11 07:29:10 51°14.495 2°54.718 310.8 9.4 299 10
2004-03-11 07:29:16 51°14.503 2°54.697 311.2 9.2 300 10
2004-03-11 07:29:20 51°14.508 2°54.683 311.3 9.3 300 10.1
2004-03-11 07:29:26 51°14.516 2°54.661 311.3 9.4 300 10.2
2004-03-11 07:29:30 51°14.521 2°54.646 311.4 9.8 301 10.2
2004-03-11 07:29:36 51°14.53 2°54.623 311.6 10.1 301 10.1
2004-03-11 07:29:40 51°14.537 2°54.607 311.8 10.6 302 10.2
2004-03-11 07:29:46 51°14.546 2°54.583 311.9 10.6 302 10.1
2004-03-11 07:29:50 51°14.553 2°54.566 312 11 302 10
2004-03-11 07:29:55 51°14.562 2°54.545 312 11.4 303 10
2004-03-11 07:30:00 51°14.57 2°54.523 312 11.4 303 9.7
2004-03-11 07:30:06 51°14.581 2°54.496 311.5 11.8 303 9.5
2004-03-11 07:30:10 51°14.588 2°54.478 310.8 11.9 302 9.7
2004-03-11 07:30:16 51°14.598 2°54.45 310.3 12.2 301 9.6
2004-03-11 07:30:20 51°14.606 2°54.431 309.7 12.6 301 9.5
2004-03-11 07:30:26 51°14.616 2°54.402 309 12.7 301 9.5
2004-03-11 07:30:30 51°14.624 2°54.383 309.8 12.9 303 9.5
2004-03-11 07:30:36 51°14.636 2°54.353 310.3 13.1 302 9.5
2004-03-11 07:30:40 51°14.643 2°54.332 309.3 13.4 300 9.4
2004-03-11 07:30:45 51°14.652 2°54.306 307.5 13.5 299 9.7
2004-03-11 07:30:50 51°14.662 2°54.279 306.6 13.6 299 9.4
2004-03-11 07:30:56 51°14.673 2°54.248 306.4 13.7 299 9.7
2004-03-11 07:31:01 51°14.683 2°54.221 306.2 13.9 300 9.3
2004-03-11 07:31:05 51°14.691 2°54.2 306.5 14 300 9.5
2004-03-11 07:31:10 51°14.7 2°54.174 307.2 13.9 301 9.6
2004-03-11 07:31:16 51°14.713 2°54.142 307.7 13.9 301 9.5
2004-03-11 07:31:20 51°14.721 2°54.121 308.3 14.1 302 9.4
2004-03-11 07:31:25 51°14.731 2°54.095 308.6 14 301 9.3
2004-03-11 07:31:30 51°14.741 2°54.068 308.4 14.1 302 9.2
2004-03-11 07:31:36 51°14.754 2°54.036 308.2 14.1 301 9.2
2004-03-11 07:31:40 51°14.762 2°54.015 308 14 301 9.1
2004-03-11 07:31:44 51°14.769 2°53.993 307.8 14.1 301 9.1
2004-03-11 07:31:50 51°14.781 2°53.961 307 14.1 301 9
2004-03-11 07:31:54 51°14.789 2°53.939 306.2 14.1 300 9.1
2004-03-11 07:32:00 51°14.8 2°53.906 305.7 14.1 299 9.1
2004-03-11 07:32:06 51°14.811 2°53.874 305.1 14.1 299 8.9
2004-03-11 07:32:10 51°14.819 2°53.851 304.9 14.2 299 8.9
2004-03-11 07:32:14 51°14.826 2°53.829 304.8 14.2 298 9.2
2004-03-11 07:32:20 51°14.838 2°53.796 305.2 14.2 299 9.1
2004-03-11 07:32:25 51°14.848 2°53.769 305.4 14.2 300 8.8
2004-03-11 07:32:30 51°14.857 2°53.742 306 14.2 300 8.9
2004-03-11 07:32:36 51°14.869 2°53.71 306.8 14.2 301 8.9
2004-03-11 07:32:40 51°14.878 2°53.688 307 14.1 301 9.2
2004-03-11 07:32:45 51°14.888 2°53.661 307.2 14.2 301 8.9
2004-03-11 07:32:50 51°14.897 2°53.634 307 14.2 300 8.9
2004-03-11 07:32:54 51°14.905 2°53.612 306.5 14.3 300 9.2
2004-03-11 07:33:00 51°14.917 2°53.579 306.4 14.3 300 9
2004-03-11 07:33:06 51°14.928 2°53.547 305.5 14.3 300 9
2004-03-11 07:33:10 51°14.936 2°53.524 305.2 14.2 299 9.1
2004-03-11 07:33:16 51°14.947 2°53.491 305.1 14.3 298 9.1
2004-03-11 07:33:20 51°14.955 2°53.469 304.8 14.3 299 9
2004-03-11 07:33:26 51°14.967 2°53.436 305 14.3 299 9
2004-03-11 07:33:30 51°14.975 2°53.414 305.8 14.3 300 9.1
2004-03-11 07:33:36 51°14.987 2°53.382 306.6 14.3 300 9.2
2004-03-11 07:33:41 51°14.997 2°53.354 307.2 14.4 300 9.1
2004-03-11 07:33:46 51°15.007 2°53.327 307 14.4 300 9.1
2004-03-11 07:33:50 51°15.015 2°53.304 306.5 14.3 299 9.2
2004-03-11 07:33:56 51°15.027 2°53.271 305.6 14.3 299 9.1
2004-03-11 07:34:00 51°15.034 2°53.249 305 14.3 299 9
2004-03-11 07:34:06 51°15.045 2°53.215 304.1 14.3 298 9.5
2004-03-11 07:34:10 51°15.052 2°53.192 303.3 14.4 296 9.3
2004-03-11 07:34:14 51°15.059 2°53.169 302.6 14.4 297 9.1
2004-03-11 07:34:21 51°15.072 2°53.129 302.6 14.4 297 9.1
2004-03-11 07:34:26 51°15.081 2°53.101 302.7 14.4 297 9.2
2004-03-11 07:34:30 51°15.088 2°53.078 303.2 14.4 298 8.8
2004-03-11 07:34:36 51°15.099 2°53.044 303.3 14.4 298 9.3
2004-03-11 07:34:40 51°15.106 2°53.021 302.9 14.3 297 9.4
2004-03-11 07:34:45 51°15.114 2°52.993 302.2 14.4 296 9.3
2004-03-11 07:34:50 51°15.123 2°52.964 301.6 14.4 295 9.6
2004-03-11 07:34:56 51°15.133 2°52.929 300.5 14.5 294 9.5
2004-03-11 07:35:01 51°15.141 2°52.899 300.2 14.5 293 9.5
2004-03-11 07:35:05 51°15.147 2°52.875 299.8 14.6 293 9.7
2004-03-11 07:35:10 51°15.154 2°52.845 299 14.6 292 9.6
2004-03-11 07:35:16 51°15.163 2°52.809 298.7 14.6 291 9.8
2004-03-11 07:35:20 51°15.17 2°52.785 299 14.6 292 9.9
2004-03-11 07:35:26 51°15.179 2°52.75 300.2 14.7 293 9.9
2004-03-11 07:35:30 51°15.186 2°52.726 301.3 14.7 295 10
2004-03-11 07:35:36 51°15.197 2°52.691 302.6 14.7 296 10.1
2004-03-11 07:35:41 51°15.206 2°52.662 303.4 14.6 296 10.1
2004-03-11 07:35:46 51°15.215 2°52.633 304 14.6 296 10.2
2004-03-11 07:35:50 51°15.222 2°52.61 304.1 14.7 296 10.2
2004-03-11 07:35:56 51°15.233 2°52.575 304.1 14.6 296 10.4
2004-03-11 07:36:00 51°15.24 2°52.552 304.1 14.7 296 10.4
2004-03-11 07:36:06 51°15.25 2°52.517 303.7 14.7 296 10.4
2004-03-11 07:36:10 51°15.258 2°52.493 303.2 14.6 295 10.4
2004-03-11 07:36:16 51°15.268 2°52.458 303 14.6 295 10.6
2004-03-11 07:36:20 51°15.275 2°52.434 302.9 14.7 295 10.6
2004-03-11 07:36:26 51°15.285 2°52.399 303.1 14.7 295 10.7
2004-03-11 07:36:30 51°15.292 2°52.376 303.4 14.6 296 10.7
2004-03-11 07:36:35 51°15.301 2°52.347 303.3 14.6 295 10.9
2004-03-11 07:36:40 51°15.309 2°52.317 302.5 14.6 293 10.8
2004-03-11 07:36:46 51°15.318 2°52.281 301 14.6 293 10.9
2004-03-11 07:36:50 51°15.324 2°52.257 299.8 14.7 291 10.9
2004-03-11 07:36:54 51°15.33 2°52.233 298.4 14.7 291 11
2004-03-11 07:37:00 51°15.338 2°52.197 297.8 14.7 291 10.9
2004-03-11 07:37:06 51°15.347 2°52.16 297.1 14.7 291 11
2004-03-11 07:37:10 51°15.352 2°52.135 296.9 14.7 289 11
2004-03-11 07:37:16 51°15.36 2°52.099 296.7 14.8 289 11.2
2004-03-11 07:37:20 51°15.366 2°52.074 297.4 14.7 289 11.2
2004-03-11 07:37:25 51°15.372 2°52.044 297 14.7 289 11.3
2004-03-11 07:37:30 51°15.379 2°52.013 296.5 14.7 289 11.2
2004-03-11 07:37:36 51°15.385 2°51.975 294.1 14.8 286 11.3
2004-03-11 07:37:40 51°15.389 2°51.95 292.3 14.7 284 11.4
2004-03-11 07:37:46 51°15.394 2°51.911 290.8 14.7 283 11.4
2004-03-11 07:37:50 51°15.398 2°51.886 289.6 14.7 282 11.4
2004-03-11 07:37:56 51°15.402 2°51.847 287.4 14.7 280 11.5
2004-03-11 07:38:00 51°15.404 2°51.821 285.7 14.7 279 11.3
2004-03-11 07:38:06 51°15.407 2°51.782 284 14.7 279 11.4
2004-03-11 07:38:10 51°15.409 2°51.756 283.4 14.7 278 11.4
2004-03-11 07:38:16 51°15.412 2°51.717 282.7 14.8 276 11.6
2004-03-11 07:38:20 51°15.412 2°51.691 280.7 14.8 272 11.6
2004-03-11 07:38:26 51°15.413 2°51.652 278.1 14.8 272 11.6
2004-03-11 07:38:30 51°15.412 2°51.626 275.8 14.8 269 11.7
2004-03-11 07:38:34 51°15.412 2°51.6 274.2 14.8 269 11.7
2004-03-11 07:38:40 51°15.411 2°51.561 273.3 14.8 268 11.7
2004-03-11 07:38:46 51°15.41 2°51.521 272.3 14.8 267 11.7
2004-03-11 07:38:50 51°15.408 2°51.495 271.7 14.8 266 11.8
2004-03-11 07:38:56 51°15.407 2°51.456 271.4 14.8 266 11.7
2004-03-11 07:39:00 51°15.406 2°51.43 271.1 14.8 266 11.8
2004-03-11 07:39:05 51°15.405 2°51.397 270.7 14.8 267 11.8
2004-03-11 07:39:10 51°15.403 2°51.365 270.4 14.9 266 11.8
2004-03-11 07:39:16 51°15.401 2°51.325 270.4 14.9 266 11.8
2004-03-11 07:39:20 51°15.4 2°51.299 270.7 14.8 266 11.7
2004-03-11 07:39:26 51°15.398 2°51.26 270.4 14.9 267 11.8
2004-03-11 07:39:30 51°15.398 2°51.234 271.1 14.8 267 11.9
2004-03-11 07:39:36 51°15.396 2°51.194 271.3 14.8 266 11.9
2004-03-11 07:39:40 51°15.395 2°51.168 271.9 14.9 268 11.9
2004-03-11 07:39:45 51°15.393 2°51.135 270.7 14.9 264 11.8
2004-03-11 07:39:49 51°15.391 2°51.109 268.2 14.9 263 11.9
2004-03-11 07:39:56 51°15.386 2°51.064 266.4 14.8 262 11.9
2004-03-11 07:40:00 51°15.384 2°51.038 265.4 14.8 262 11.9
2004-03-11 07:40:06 51°15.379 2°50.999 264.8 14.9 259 11.9
2004-03-11 07:40:10 51°15.377 2°50.973 264 14.9 261 12
2004-03-11 07:40:16 51°15.372 2°50.935 263.5 14.8 259 12
2004-03-11 07:40:20 51°15.369 2°50.909 263.4 14.9 260 12
2004-03-11 07:40:25 51°15.365 2°50.877 263.5 14.9 259 11.9
2004-03-11 07:40:30 51°15.361 2°50.844 263.5 14.9 260 12
2004-03-11 07:40:36 51°15.357 2°50.805 263.5 14.9 260 12.1
2004-03-11 07:40:40 51°15.354 2°50.779 263.9 14.8 260 11.9
2004-03-11 07:40:46 51°15.349 2°50.74 263.5 14.8 258 12
2004-03-11 07:40:50 51°15.346 2°50.715 263.4 14.9 260 12
2004-03-11 07:40:54 51°15.343 2°50.689 264.1 14.8 260 12
2004-03-11 07:41:00 51°15.339 2°50.65 264.1 14.9 260 12.1
2004-03-11 07:41:06 51°15.335 2°50.611 264.1 14.8 260 12.1
2004-03-11 07:41:10 51°15.332 2°50.585 263.9 14.9 260 12
2004-03-11 07:41:16 51°15.327 2°50.547 263.9 14.8 260 12
2004-03-11 07:41:20 51°15.323 2°50.521 262.2 14.8 258 12
2004-03-11 07:41:26 51°15.318 2°50.483 261.4 14.7 257 11.9
2004-03-11 07:41:30 51°15.314 2°50.458 261 14.8 256 12.1
2004-03-11 07:41:36 51°15.308 2°50.42 260.3 14.8 257 12.1
2004-03-11 07:41:40 51°15.304 2°50.394 260.5 14.8 257 12
2004-03-11 07:41:45 51°15.3 2°50.363 260.6 14.7 257 12
2004-03-11 07:41:51 51°15.295 2°50.324 261.6 14.7 257 12
2004-03-11 07:41:56 51°15.292 2°50.292 262.4 14.9 259 12
2004-03-11 07:42:01 51°15.287 2°50.26 263.3 14.7 258 12
2004-03-11 07:42:06 51°15.283 2°50.228 262.7 14.8 259 12
2004-03-11 07:42:10 51°15.28 2°50.202 262.8 14.8 258 12
2004-03-11 07:42:16 51°15.276 2°50.163 262.7 14.8 258 11.9
2004-03-11 07:42:20 51°15.272 2°50.138 263.1 14.8 260 11.9
2004-03-11 07:42:26 51°15.268 2°50.099 263.9 14.8 260 11.9
2004-03-11 07:42:30 51°15.266 2°50.073 264.1 14.8 262 11.9
2004-03-11 07:42:36 51°15.261 2°50.034 264.8 14.8 259 12
2004-03-11 07:42:40 51°15.258 2°50.008 263.7 14.8 260 11.9
2004-03-11 07:42:45 51°15.255 2°49.976 264.1 14.8 261 11.9
2004-03-11 07:42:50 51°15.252 2°49.944 264.4 14.8 260 12.1
2004-03-11 07:42:56 51°15.247 2°49.905 264.2 14.8 260 12
2004-03-11 07:43:01 51°15.244 2°49.872 264 15 261 12.1
2004-03-11 07:43:06 51°15.24 2°49.84 264.5 14.8 260 12
2004-03-11 07:43:10 51°15.237 2°49.814 263.8 14.9 259 12
2004-03-11 07:43:16 51°15.233 2°49.775 263.8 14.9 259 11.9
2004-03-11 07:43:20 51°15.23 2°49.749 264.1 14.9 261 12
2004-03-11 07:43:25 51°15.226 2°49.717 263.3 14.9 261 12
2004-03-11 07:43:30 51°15.223 2°49.685 263.9 14.9 261 11.9
2004-03-11 07:43:36 51°15.219 2°49.646 263.6 14.9 259 12
2004-03-11 07:43:40 51°15.216 2°49.62 264.2 14.8 261 12
2004-03-11 07:43:46 51°15.212 2°49.581 263.8 14.9 260 11.8
2004-03-11 07:43:50 51°15.209 2°49.555 264.1 14.8 260 11.9
2004-03-11 07:43:56 51°15.204 2°49.517 263.7 14.8 260 12
2004-03-11 07:44:00 51°15.202 2°49.491 264.5 14.8 261 11.9
2004-03-11 07:44:06 51°15.197 2°49.452 263.9 14.8 261 11.9
2004-03-11 07:44:10 51°15.195 2°49.426 263.9 14.7 261 11.9
2004-03-11 07:44:16 51°15.19 2°49.388 263.5 14.6 259 12
2004-03-11 07:44:20 51°15.187 2°49.362 262.7 14.9 260 12.1
2004-03-11 07:44:25 51°15.183 2°49.33 263.4 14.8 260 12
2004-03-11 07:44:30 51°15.18 2°49.298 263.7 14.7 261 12
2004-03-11 07:44:36 51°15.175 2°49.259 263.4 14.7 259 12
2004-03-11 07:44:40 51°15.172 2°49.233 263.8 14.7 260 11.9
2004-03-11 07:44:46 51°15.169 2°49.194 264.1 14.8 261 12
2004-03-11 07:44:50 51°15.165 2°49.169 264.1 14.7 257 12
2004-03-11 07:44:56 51°15.161 2°49.13 263 14.7 259 12
2004-03-11 07:45:00 51°15.158 2°49.104 264.1 14.9 259 12
2004-03-11 07:45:06 51°15.154 2°49.066 264 14.9 259 12.1
2004-03-11 07:45:10 51°15.151 2°49.041 263.4 14.7 259 12
2004-03-11 07:45:16 51°15.147 2°49.002 264.2 14.7 262 12
2004-03-11 07:45:20 51°15.143 2°48.976 262.9 14.9 259 12
2004-03-11 07:45:26 51°15.139 2°48.937 263.4 14.9 262 12
2004-03-11 07:45:30 51°15.136 2°48.912 263.3 14.8 259 11.9
2004-03-11 07:45:36 51°15.132 2°48.873 263.8 14.7 261 11.8
2004-03-11 07:45:40 51°15.129 2°48.848 263.6 14.7 261 11.9
2004-03-11 07:45:46 51°15.124 2°48.809 263.5 14.7 261 11.9
2004-03-11 07:45:50 51°15.122 2°48.783 263.4 14.9 260 11.9
2004-03-11 07:45:56 51°15.117 2°48.744 263.7 15 260 11.9
2004-03-11 07:46:00 51°15.114 2°48.719 263.9 14.8 261 12
2004-03-11 07:46:05 51°15.111 2°48.686 263.8 14.8 261 11.9
2004-03-11 07:46:10 51°15.108 2°48.654 264.9 14.9 261 11.9
2004-03-11 07:46:15 51°15.105 2°48.621 264.6 14.9 260 11.9
2004-03-11 07:46:20 51°15.101 2°48.589 264.7 14.9 260 12
2004-03-11 07:46:26 51°15.097 2°48.55 263.5 14.9 260 12
2004-03-11 07:46:30 51°15.094 2°48.525 264.6 14.8 262 11.9
2004-03-11 07:46:36 51°15.09 2°48.486 262.8 14.9 263 11.9
2004-03-11 07:46:40 51°15.087 2°48.46 264.2 14.9 260 12
2004-03-11 07:46:46 51°15.083 2°48.421 263.9 14.9 260 12.1
2004-03-11 07:46:50 51°15.08 2°48.395 264.1 14.9 260 11.9
2004-03-11 07:46:56 51°15.076 2°48.356 264.2 14.9 259 12.1
2004-03-11 07:47:00 51°15.073 2°48.33 264.5 14.9 259 12.1
2004-03-11 07:47:05 51°15.07 2°48.297 264.3 14.9 261 12
2004-03-11 07:47:10 51°15.066 2°48.264 264.4 14.9 261 12.1
2004-03-11 07:47:16 51°15.063 2°48.225 264.5 15 261 12
2004-03-11 07:47:20 51°15.06 2°48.199 265.4 14.8 261 12
2004-03-11 07:47:26 51°15.056 2°48.16 263.6 15 260 12
2004-03-11 07:47:30 51°15.054 2°48.134 264.4 15 262 12.2
2004-03-11 07:47:36 51°15.049 2°48.095 265 14.9 261 12.1
2004-03-11 07:47:40 51°15.047 2°48.069 264.4 14.9 261 12.2
2004-03-11 07:47:46 51°15.042 2°48.03 264.1 14.9 260 12.1
2004-03-11 07:47:50 51°15.039 2°48.004 263.9 14.9 260 12.2
2004-03-11 07:47:56 51°15.035 2°47.966 263.9 14.8 260 12.1
2004-03-11 07:48:01 51°15.031 2°47.933 262.7 14.8 260 12
2004-03-11 07:48:05 51°15.029 2°47.907 263.5 14.8 261 12.1
2004-03-11 07:48:08 51°15.026 2°47.888 263 14.8 259 12.1
2004-03-11 07:48:16 51°15.021 2°47.836 264 14.9 262 11.9
2004-03-11 07:48:20 51°15.018 2°47.81 264.4 14.8 260 11.9
2004-03-11 07:48:25 51°15.014 2°47.778 263.6 14.9 259 11.9
2004-03-11 07:48:30 51°15.011 2°47.746 263.9 14.8 261 11.9
2004-03-11 07:48:36 51°15.006 2°47.708 263.3 14.7 259 11.7
2004-03-11 07:48:40 51°15.004 2°47.681 263.2 14.9 262 11.6
2004-03-11 07:48:46 51°14.999 2°47.643 264.1 14.7 258 11.5
2004-03-11 07:48:50 51°14.996 2°47.617 262.8 14.9 260 11.4
2004-03-11 07:48:56 51°14.991 2°47.578 263.3 14.9 259 11.1
2004-03-11 07:49:00 51°14.989 2°47.552 263.8 14.8 261 10.9
2004-03-11 07:49:06 51°14.985 2°47.514 263.9 14.9 260 11.1
2004-03-11 07:49:10 51°14.982 2°47.488 264.5 14.7 259 10.9
2004-03-11 07:49:16 51°14.978 2°47.449 263.2 14.8 258 10.8
2004-03-11 07:49:20 51°14.975 2°47.424 263.7 14.8 261 10.6
2004-03-11 07:49:25 51°14.971 2°47.391 264.3 14.7 260 10.5
2004-03-11 07:49:30 51°14.968 2°47.359 263.6 14.7 261 10.4
2004-03-11 07:49:36 51°14.963 2°47.321 264.1 14.8 259 10.2
2004-03-11 07:49:40 51°14.961 2°47.295 263.4 14.8 262 10
2004-03-11 07:49:45 51°14.958 2°47.263 265.3 14.7 261 9.9
2004-03-11 07:49:50 51°14.954 2°47.231 263.6 14.7 259 9.4
2004-03-11 07:49:56 51°14.95 2°47.193 263.9 14.7 262 9.3
2004-03-11 07:50:00 51°14.947 2°47.167 264.2 14.7 260 9.6
2004-03-11 07:50:06 51°14.943 2°47.129 263.9 14.7 260 9.4
2004-03-11 07:50:10 51°14.941 2°47.103 264.3 14.6 261 9.3
2004-03-11 07:50:14 51°14.938 2°47.078 263.9 14.7 260 9.1
2004-03-11 07:50:20 51°14.934 2°47.04 264.3 14.5 260 9
2004-03-11 07:50:26 51°14.93 2°47.002 264.3 14.4 260 8.8
2004-03-11 07:50:30 51°14.927 2°46.977 263.4 14.5 259 8.8
2004-03-11 07:50:36 51°14.923 2°46.939 263.4 14.5 259 8.5
2004-03-11 07:50:41 51°14.919 2°46.908 263 14.6 259 8.4
2004-03-11 07:50:46 51°14.916 2°46.876 263 14.6 259 8.4
2004-03-11 07:50:50 51°14.912 2°46.851 263.4 14.5 260 8.4
2004-03-11 07:50:56 51°14.907 2°46.814 262.3 14.5 260 8.3
2004-03-11 07:51:00 51°14.905 2°46.788 262.3 14.5 258 8.3
2004-03-11 07:51:05 51°14.9 2°46.758 262.4 14.3 257 8.1
2004-03-11 07:51:10 51°14.898 2°46.726 262.1 14.4 261 8.1
2004-03-11 07:51:16 51°14.893 2°46.688 263.2 14.4 259 8.1
2004-03-11 07:51:20 51°14.89 2°46.663 263.3 14.4 260 8
2004-03-11 07:51:26 51°14.886 2°46.626 263.2 14.4 259 8
2004-03-11 07:51:30 51°14.883 2°46.601 263.4 14.4 259 8.1
2004-03-11 07:51:36 51°14.879 2°46.563 264.4 14.3 260 8
2004-03-11 07:51:40 51°14.877 2°46.538 264.3 14.4 261 8
2004-03-11 07:51:45 51°14.874 2°46.506 264.5 14.5 261 7.9
2004-03-11 07:51:50 51°14.871 2°46.475 264.8 14.5 261 7.9
2004-03-11 07:51:56 51°14.868 2°46.437 265.3 14.4 261 7.9
2004-03-11 07:52:00 51°14.866 2°46.411 265.3 14.4 261 7.9
2004-03-11 07:52:05 51°14.863 2°46.38 266.4 14.5 262 8
2004-03-11 07:52:10 51°14.861 2°46.348 267.9 14.3 263 8
2004-03-11 07:52:16 51°14.858 2°46.31 266.9 14.3 261 8.1
2004-03-11 07:52:21 51°14.854 2°46.279 265.6 14.4 262 8
2004-03-11 07:52:26 51°14.851 2°46.247 264.3 14.6 261 8.1
2004-03-11 07:52:30 51°14.847 2°46.222 262.8 14.5 258 8.1
2004-03-11 07:52:36 51°14.842 2°46.184 261.5 14.5 258 8.1
2004-03-11 07:52:40 51°14.839 2°46.159 261.2 14.6 258 8.2
2004-03-11 07:52:45 51°14.834 2°46.128 261 14.7 257 8.2
2004-03-11 07:52:50 51°14.83 2°46.096 260.7 14.7 258 8.3
2004-03-11 07:52:56 51°14.825 2°46.058 261.8 14.5 259 8.4
2004-03-11 07:53:00 51°14.822 2°46.033 261.2 14.7 260 8.4
2004-03-11 07:53:06 51°14.818 2°45.994 262.4 14.7 260 8.5
2004-03-11 07:53:10 51°14.816 2°45.968 263.5 14.8 262 8.6
2004-03-11 07:53:14 51°14.814 2°45.942 266.1 14.8 265 8.7
2004-03-11 07:53:20 51°14.813 2°45.903 268.9 14.8 266 8.7
2004-03-11 07:53:26 51°14.812 2°45.863 271.3 14.8 266 9.1
2004-03-11 07:53:30 51°14.812 2°45.837 272.9 14.9 269 9.3
2004-03-11 07:53:34 51°14.812 2°45.81 273.7 15 270 9.5
2004-03-11 07:53:40 51°14.812 2°45.77 274.1 15 269 9.7
2004-03-11 07:53:45 51°14.811 2°45.737 273.8 15.2 268 9.8
2004-03-11 07:53:50 51°14.81 2°45.703 273.2 15.2 269 10
2004-03-11 07:53:56 51°14.807 2°45.663 270.5 15.2 265 10
2004-03-11 07:54:01 51°14.805 2°45.63 269.1 15.1 263 10.3
2004-03-11 07:54:06 51°14.801 2°45.596 266 15.2 259 10.5
2004-03-11 07:54:10 51°14.798 2°45.57 263.7 15.4 261 10.5
2004-03-11 07:54:16 51°14.793 2°45.53 263.7 15.4 261 10.6
2004-03-11 07:54:20 51°14.791 2°45.504 262.7 15.2 261 10.8
2004-03-11 07:54:26 51°14.786 2°45.464 263.5 15.2 262 10.9
2004-03-11 07:54:30 51°14.784 2°45.438 263.2 15.2 262 11
2004-03-11 07:54:36 51°14.779 2°45.398 263.7 15.2 259 11.2
2004-03-11 07:54:41 51°14.776 2°45.365 264.1 15.2 261 11.2
2004-03-11 07:54:45 51°14.773 2°45.339 263.8 15.2 260 11.3
2004-03-11 07:54:50 51°14.769 2°45.306 263.9 15.2 261 11.5
2004-03-11 07:54:56 51°14.766 2°45.266 264.9 15.1 262 11.6
2004-03-11 07:55:01 51°14.762 2°45.233 264.6 15 261 11.7
2004-03-11 07:55:06 51°14.759 2°45.2 264.5 15.1 261 11.8
2004-03-11 07:55:08 51°14.757 2°45.187 264.6 15.2 261 12
2004-03-11 07:55:16 51°14.752 2°45.134 264.6 15.1 261 12
2004-03-11 07:55:20 51°14.75 2°45.107 264.3 15.1 261 12.2
2004-03-11 07:55:26 51°14.746 2°45.068 265.3 15.1 261 12.4
2004-03-11 07:55:30 51°14.743 2°45.042 264.8 15 261 12.5
2004-03-11 07:55:36 51°14.738 2°45.002 263.8 15.1 260 12.5
2004-03-11 07:55:40 51°14.736 2°44.976 264 15.3 259 12.9
2004-03-11 07:55:46 51°14.731 2°44.937 264.3 15 260 12.8
2004-03-11 07:55:50 51°14.728 2°44.91 263.1 15 260 12.8
2004-03-11 07:55:56 51°14.724 2°44.871 263.9 15.1 260 13
2004-03-11 07:56:00 51°14.721 2°44.845 263.7 15 259 13.2
2004-03-11 07:56:05 51°14.717 2°44.812 263.5 15.1 261 13.2
2004-03-11 07:56:10 51°14.714 2°44.778 264.1 15.2 263 13.3
2004-03-11 07:56:16 51°14.709 2°44.739 264.9 15.2 263 13.6
2004-03-11 07:56:20 51°14.707 2°44.713 264.1 15.1 262 13.5
2004-03-11 07:56:26 51°14.703 2°44.673 264.6 15 260 13.6
2004-03-11 07:56:30 51°14.701 2°44.647 264.4 15.1 260 13.7
2004-03-11 07:56:36 51°14.696 2°44.608 264.6 15 259 13.7
2004-03-11 07:56:40 51°14.693 2°44.582 263.5 15.2 261 13.8
2004-03-11 07:56:44 51°14.691 2°44.556 264.9 14.9 261 13.8
2004-03-11 07:56:50 51°14.686 2°44.517 263.5 14.9 261 14
2004-03-11 07:56:56 51°14.682 2°44.477 264.3 15 261 14
2004-03-11 07:57:00 51°14.679 2°44.451 263.7 15.1 259 14
2004-03-11 07:57:05 51°14.676 2°44.418 264.2 15.1 262 14.1
2004-03-11 07:57:10 51°14.672 2°44.386 264.8 15 260 14.2
2004-03-11 07:57:16 51°14.668 2°44.346 264.2 15 261 14.3
2004-03-11 07:57:20 51°14.665 2°44.321 264.9 15 259 14.4
2004-03-11 07:57:26 51°14.66 2°44.282 263.9 14.9 258 14.5
2004-03-11 07:57:30 51°14.656 2°44.256 262.6 15 257 14.6
2004-03-11 07:57:36 51°14.651 2°44.217 262.7 15.2 259 14.8
2004-03-11 07:57:40 51°14.647 2°44.191 263.5 14.9 258 14.8
2004-03-11 07:57:46 51°14.643 2°44.152 262.9 15 259 15
2004-03-11 07:57:50 51°14.639 2°44.126 263.5 15.1 259 15
2004-03-11 07:57:56 51°14.634 2°44.086 264.3 15.2 259 15.1
2004-03-11 07:58:00 51°14.632 2°44.06 264.7 14.9 261 15.2
2004-03-11 07:58:06 51°14.627 2°44.021 264.8 14.9 261 14.9
2004-03-11 07:58:10 51°14.625 2°43.995 265.6 15 262 15.2
2004-03-11 07:58:14 51°14.621 2°43.968 264.9 15.1 258 14.5
2004-03-11 07:58:21 51°14.617 2°43.923 265.9 14.9 262 14.9
2004-03-11 07:58:25 51°14.613 2°43.896 264.7 15.1 257 15.1
2004-03-11 07:58:29 51°14.611 2°43.87 265.5 15.2 262 14.9
2004-03-11 07:58:36 51°14.605 2°43.825 265.2 14.9 260 14.7
2004-03-11 07:58:41 51°14.602 2°43.792 263.8 14.9 258 15.4
2004-03-11 07:58:46 51°14.598 2°43.759 264.6 15.1 259 15.2
2004-03-11 07:58:50 51°14.595 2°43.733 265.2 15 261 15.5
2004-03-11 07:58:54 51°14.592 2°43.707 264.6 15 258 15.5
2004-03-11 07:59:00 51°14.588 2°43.668 264.4 15.1 260 15.6
2004-03-11 07:59:06 51°14.583 2°43.628 265.2 15.1 260 15.7
2004-03-11 07:59:10 51°14.58 2°43.602 265 15.1 259 15.5
2004-03-11 07:59:16 51°14.576 2°43.562 264.6 15.2 259 15.8
2004-03-11 07:59:20 51°14.572 2°43.536 265.1 15.1 261 15.9
2004-03-11 07:59:26 51°14.568 2°43.497 263.5 15.1 257 15.5
2004-03-11 07:59:30 51°14.564 2°43.47 264.7 15.3 259 15.4
2004-03-11 07:59:34 51°14.562 2°43.444 265.4 15.1 261 15.4
2004-03-11 07:59:40 51°14.556 2°43.404 265.4 15.1 261 16
2004-03-11 07:59:45 51°14.553 2°43.371 264.4 15.3 259 15.8
2004-03-11 07:59:50 51°14.549 2°43.339 264.8 15.2 260 15.8
2004-03-11 07:59:56 51°14.544 2°43.299 264.1 15.2 258 16.1
2004-03-11 08:00:01 51°14.539 2°43.266 264.2 15.3 258 16
2004-03-11 08:00:06 51°14.536 2°43.233 264.5 15.3 259 15.7
2004-03-11 08:00:10 51°14.532 2°43.206 264.7 15.1 259 16
2004-03-11 08:00:16 51°14.527 2°43.167 263.7 15.1 259 16.1
2004-03-11 08:00:20 51°14.524 2°43.14 264.1 15.3 259 16.2
2004-03-11 08:00:26 51°14.519 2°43.101 264.9 15.3 259 16.1
2004-03-11 08:00:30 51°14.516 2°43.074 264.9 15 260 16.3
2004-03-11 08:00:36 51°14.512 2°43.035 263.9 15.2 261 16.3
2004-03-11 08:00:40 51°14.508 2°43.008 265.1 15.2 259 16.4
2004-03-11 08:00:45 51°14.504 2°42.975 263.9 15.3 259 16.3
2004-03-11 08:00:50 51°14.499 2°42.942 264.2 15.2 260 16.3
2004-03-11 08:00:56 51°14.495 2°42.903 264.2 15.1 259 16.2
2004-03-11 08:01:00 51°14.492 2°42.876 264.2 15.2 259 16.3
2004-03-11 08:01:06 51°14.487 2°42.837 264.6 15.2 259 16.3
2004-03-11 08:01:10 51°14.484 2°42.81 264.4 15.1 259 16.3
2004-03-11 08:01:16 51°14.478 2°42.771 264.1 15.2 258 16.4
2004-03-11 08:01:20 51°14.475 2°42.744 264.3 15.2 259 16.4
2004-03-11 08:01:26 51°14.471 2°42.705 263.8 15.1 258 16.4
2004-03-11 08:01:30 51°14.467 2°42.679 264 15.1 260 16.3
2004-03-11 08:01:36 51°14.463 2°42.639 264.1 15.2 258 16.3
2004-03-11 08:01:40 51°14.46 2°42.613 264.9 15.2 259 16.2
2004-03-11 08:01:46 51°14.455 2°42.573 264.3 15.3 258 16.4
2004-03-11 08:01:50 51°14.452 2°42.547 264.9 15.1 261 16.3
2004-03-11 08:01:56 51°14.447 2°42.507 264.1 15.1 258 16.2
2004-03-11 08:02:00 51°14.444 2°42.481 263.6 15.2 259 16.2
2004-03-11 08:02:05 51°14.441 2°42.448 264.9 15.1 260 16.1
2004-03-11 08:02:10 51°14.437 2°42.415 264.2 15.3 260 16.1
2004-03-11 08:02:16 51°14.433 2°42.375 265.1 15.2 261 16.1
2004-03-11 08:02:21 51°14.429 2°42.342 265.4 15.2 261 16.2
2004-03-11 08:02:25 51°14.426 2°42.316 264.9 15.1 262 16.2
2004-03-11 08:02:30 51°14.423 2°42.283 266 15.1 261 16.1
2004-03-11 08:02:36 51°14.419 2°42.243 265.4 15.2 261 16.1
2004-03-11 08:02:40 51°14.417 2°42.216 266.5 15.2 262 16.1
2004-03-11 08:02:46 51°14.412 2°42.177 265.9 15.2 260 16.2
2004-03-11 08:02:50 51°14.41 2°42.15 266.3 15.2 260 16.1
2004-03-11 08:02:56 51°14.406 2°42.111 265.1 15.1 259 16
2004-03-11 08:03:01 51°14.403 2°42.078 266.4 15.2 262 15.8
2004-03-11 08:03:06 51°14.4 2°42.045 266 15.2 262 15.6
2004-03-11 08:03:10 51°14.397 2°42.018 266.5 15.1 261 15.5
2004-03-11 08:03:16 51°14.394 2°41.979 266.1 15.1 260 15.5
2004-03-11 08:03:20 51°14.391 2°41.952 265.7 15.1 261 15.1
2004-03-11 08:03:26 51°14.388 2°41.913 265.6 15.1 260 15.2
2004-03-11 08:03:30 51°14.384 2°41.886 265.9 15.2 261 15
2004-03-11 08:03:36 51°14.382 2°41.846 266.2 15.2 261 14.9
2004-03-11 08:03:40 51°14.378 2°41.82 266.3 15.1 259 14.9
2004-03-11 08:03:46 51°14.375 2°41.781 265.8 15 262 14.6
2004-03-11 08:03:50 51°14.372 2°41.754 265.3 15.1 260 14.4
2004-03-11 08:03:56 51°14.368 2°41.714 265.3 15.3 262 14.3
2004-03-11 08:04:01 51°14.365 2°41.681 266.6 15.1 262 14.1
2004-03-11 08:04:06 51°14.363 2°41.648 266.2 15.1 262 13.8
2004-03-11 08:04:10 51°14.36 2°41.622 266.4 15.1 263 12.6
2004-03-11 08:04:14 51°14.358 2°41.595 266.2 15.1 262 13.1
2004-03-11 08:04:20 51°14.354 2°41.556 266.1 15 261 13.4
2004-03-11 08:04:26 51°14.351 2°41.516 265.7 15 261 13.4
2004-03-11 08:04:30 51°14.348 2°41.489 266.3 15.3 262 13.2
2004-03-11 08:04:36 51°14.345 2°41.449 266.4 15.4 262 13.1
2004-03-11 08:04:40 51°14.343 2°41.422 266.9 15.2 263 13.1
2004-03-11 08:04:45 51°14.34 2°41.39 266.3 15.1 262 13
2004-03-11 08:04:50 51°14.337 2°41.356 266.5 15.1 264 13
2004-03-11 08:04:54 51°14.335 2°41.33 267.4 15.1 263 13
2004-03-11 08:05:00 51°14.331 2°41.29 266 15.1 261 12.9
2004-03-11 08:05:06 51°14.328 2°41.25 266 15.1 261 13
2004-03-11 08:05:10 51°14.326 2°41.223 266.3 15.1 262 13.1
2004-03-11 08:05:14 51°14.323 2°41.197 265.6 15.2 262 13
2004-03-11 08:05:20 51°14.32 2°41.157 266.3 15 262 13
2004-03-11 08:05:26 51°14.317 2°41.117 265.7 15.3 261 13.1
2004-03-11 08:05:30 51°14.315 2°41.091 266.4 15.2 263 13.1
2004-03-11 08:05:36 51°14.311 2°41.051 266.5 15.2 261 13.4
2004-03-11 08:05:40 51°14.309 2°41.024 266.2 15.1 264 13.5
2004-03-11 08:05:46 51°14.305 2°40.984 267.1 15 262 13.3
2004-03-11 08:05:50 51°14.304 2°40.958 265.4 15.2 263 12.5
2004-03-11 08:05:56 51°14.3 2°40.918 266.5 15.2 264 12.6
2004-03-11 08:06:00 51°14.298 2°40.891 265.7 15.1 263 12.8
2004-03-11 08:06:04 51°14.296 2°40.865 266.3 15.1 262 13
2004-03-11 08:06:10 51°14.293 2°40.825 266.6 15.1 263 13
2004-03-11 08:06:16 51°14.289 2°40.785 266.3 15 263 13.2
2004-03-11 08:06:20 51°14.287 2°40.759 265.3 15.2 263 13.2
2004-03-11 08:06:26 51°14.283 2°40.719 266.1 15 262 12.9
2004-03-11 08:06:30 51°14.281 2°40.693 265.6 15.2 262 12.9
2004-03-11 08:06:34 51°14.278 2°40.666 265.7 15.2 262 12.4
2004-03-11 08:06:40 51°14.275 2°40.626 265.6 15.1 263 12
2004-03-11 08:06:46 51°14.271 2°40.587 266.4 14.9 263 11.7
2004-03-11 08:06:50 51°14.27 2°40.561 265.6 14.9 261 11.8
2004-03-11 08:06:56 51°14.266 2°40.521 266.3 14.9 264 12.2
2004-03-11 08:07:00 51°14.264 2°40.494 265 15.3 263 12.5
2004-03-11 08:07:06 51°14.261 2°40.455 266.6 15.3 263 12.8
2004-03-11 08:07:11 51°14.258 2°40.421 266.3 15.1 262 13
2004-03-11 08:07:16 51°14.256 2°40.388 266.9 15.2 265 13
2004-03-11 08:07:20 51°14.254 2°40.362 267.8 15.1 263 13
2004-03-11 08:07:26 51°14.251 2°40.322 267.1 15.1 263 12.9
2004-03-11 08:07:30 51°14.249 2°40.295 266.4 15.2 262 12.8
2004-03-11 08:07:36 51°14.245 2°40.256 266.1 15 264 12.5
2004-03-11 08:07:40 51°14.243 2°40.229 265 15.2 263 12.5
2004-03-11 08:07:46 51°14.24 2°40.19 266.9 15.2 263 11.9
2004-03-11 08:07:50 51°14.238 2°40.164 266.2 14.7 262 10.7
2004-03-11 08:07:56 51°14.235 2°40.125 264.9 14.9 261 10.6
2004-03-11 08:08:01 51°14.232 2°40.092 266.9 14.9 264 11.8
2004-03-11 08:08:06 51°14.23 2°40.059 266.5 14.9 264 12.5
2004-03-11 08:08:10 51°14.228 2°40.032 265.7 15.1 263 12.5
2004-03-11 08:08:16 51°14.225 2°39.992 266.5 15.1 263 12.6
2004-03-11 08:08:20 51°14.223 2°39.965 267.6 15.2 263 12.4
2004-03-11 08:08:26 51°14.22 2°39.925 267.4 15.2 263 12.3
2004-03-11 08:08:30 51°14.218 2°39.898 266.8 15.3 262 12.1
2004-03-11 08:08:36 51°14.216 2°39.858 267.5 15.2 264 12
2004-03-11 08:08:41 51°14.213 2°39.826 266.8 15 263 12
2004-03-11 08:08:45 51°14.211 2°39.8 265.8 14.7 262 11.8
2004-03-11 08:08:50 51°14.208 2°39.767 265.2 14.9 262 11.9
2004-03-11 08:08:56 51°14.205 2°39.727 265 15.2 262 12.1
2004-03-11 08:09:00 51°14.202 2°39.701 266 15 261 12.2
2004-03-11 08:09:06 51°14.199 2°39.662 265.5 15 261 12.1
2004-03-11 08:09:10 51°14.197 2°39.636 266.2 14.9 261 12.1
2004-03-11 08:09:16 51°14.194 2°39.596 265.6 15 261 12.3
2004-03-11 08:09:20 51°14.19 2°39.57 265.6 15.1 260 12.2
2004-03-11 08:09:26 51°14.187 2°39.53 265.8 15 264 12.2
2004-03-11 08:09:31 51°14.185 2°39.498 265.1 14.9 260 12
2004-03-11 08:09:36 51°14.182 2°39.465 266 14.8 260 11.8
2004-03-11 08:09:41 51°14.179 2°39.433 265.3 14.9 262 11.7
2004-03-11 08:09:46 51°14.176 2°39.4 265.1 14.9 262 11.7
2004-03-11 08:09:50 51°14.174 2°39.373 265.6 15.2 262 11.8
2004-03-11 08:09:56 51°14.172 2°39.334 267.1 15.1 263 12.1
2004-03-11 08:10:00 51°14.17 2°39.309 267.5 14.4 264 12
2004-03-11 08:10:06 51°14.167 2°39.269 265.4 14.4 264 11.9
2004-03-11 08:10:11 51°14.164 2°39.236 267.2 14.4 264 11.8
2004-03-11 08:10:14 51°14.163 2°39.216 268 15 263 11.9
2004-03-11 08:10:20 51°14.159 2°39.177 266.2 14.8 262 11.5
2004-03-11 08:10:26 51°14.156 2°39.139 265.9 14.8 263 11
2004-03-11 08:10:30 51°14.154 2°39.113 265.7 14.7 262 10.6
2004-03-11 08:10:36 51°14.15 2°39.074 265.5 14.7 262 10.7
2004-03-11 08:10:40 51°14.147 2°39.047 265.4 15 262 10.5
2004-03-11 08:10:46 51°14.145 2°39.009 266.2 15 262 10.6
2004-03-11 08:10:50 51°14.142 2°38.983 266.3 14.6 262 10.9
2004-03-11 08:10:56 51°14.139 2°38.943 265.2 14.8 262 11
2004-03-11 08:11:00 51°14.136 2°38.917 265.7 15.3 263 10.9
2004-03-11 08:11:06 51°14.134 2°38.877 267 15.1 264 9.9
2004-03-11 08:11:10 51°14.132 2°38.85 267 15.1 264 9.6
2004-03-11 08:11:16 51°14.129 2°38.811 268 14.8 263 10.2
2004-03-11 08:11:21 51°14.127 2°38.779 267.8 14.8 264 11
2004-03-11 08:11:26 51°14.124 2°38.745 266.9 14.8 264 11.1
2004-03-11 08:11:30 51°14.122 2°38.719 266.9 15.2 263 11.8
2004-03-11 08:11:36 51°14.119 2°38.678 266.2 15.4 262 12
2004-03-11 08:11:40 51°14.117 2°38.651 266.3 15.6 265 12.5
2004-03-11 08:11:46 51°14.113 2°38.61 266.4 15.6 265 12.6
2004-03-11 08:11:51 51°14.111 2°38.576 266.6 15.6 265 13.2
2004-03-11 08:11:54 51°14.109 2°38.555 267 15.5 263 13.8
2004-03-11 08:12:00 51°14.106 2°38.515 266.9 15.3 262 14.1
2004-03-11 08:12:06 51°14.103 2°38.475 266.2 15.4 261 14.4
2004-03-11 08:12:10 51°14.1 2°38.448 266.1 15.5 262 14.8
2004-03-11 08:12:16 51°14.095 2°38.408 264.4 15.4 257 14.7
2004-03-11 08:12:20 51°14.091 2°38.382 260.6 15.3 257 15.2
2004-03-11 08:12:26 51°14.083 2°38.343 258.4 15.1 254 15.1
2004-03-11 08:12:30 51°14.078 2°38.319 255.4 15.1 250 15.4
2004-03-11 08:12:36 51°14.069 2°38.28 251.8 15.3 250 15.8
2004-03-11 08:12:40 51°14.062 2°38.256 251 15.2 248 15.9
2004-03-11 08:12:46 51°14.052 2°38.219 249.4 15.2 248 15.8
2004-03-11 08:12:50 51°14.045 2°38.195 247.5 15 245 15.9
2004-03-11 08:12:56 51°14.035 2°38.159 247.2 15 245 16
2004-03-11 08:13:00 51°14.027 2°38.136 245.6 14.9 242 15.7
2004-03-11 08:13:06 51°14.016 2°38.1 245.1 14.9 242 15.5
2004-03-11 08:13:10 51°14.008 2°38.076 244.6 15.2 242 15.4
2004-03-11 08:13:16 51°13.999 2°38.04 246.5 14.7 245 15.7
2004-03-11 08:13:20 51°13.991 2°38.017 245.8 14.7 245 15.8
2004-03-11 08:13:25 51°13.983 2°37.985 246.7 15 246 15.9
2004-03-11 08:13:30 51°13.974 2°37.956 247.7 15 246 15.5
2004-03-11 08:13:36 51°13.965 2°37.919 246.9 15.1 246 12.7
2004-03-11 08:13:40 51°13.958 2°37.895 248.2 14.9 246 12.6
2004-03-11 08:13:46 51°13.948 2°37.858 246.8 14.9 246 13.9
2004-03-11 08:13:50 51°13.941 2°37.834 248.1 15.1 247 14.9
2004-03-11 08:13:54 51°13.935 2°37.809 248.8 15.2 248 15.6
2004-03-11 08:14:00 51°13.925 2°37.772 248.8 15.2 246 15.9
2004-03-11 08:14:06 51°13.915 2°37.735 248.4 15.2 247 16.1
2004-03-11 08:14:10 51°13.908 2°37.71 248 15.2 247 16.6
2004-03-11 08:14:16 51°13.898 2°37.673 248 15.1 247 16.8
2004-03-11 08:14:21 51°13.89 2°37.643 248.2 15.2 246 16.8
2004-03-11 08:14:26 51°13.882 2°37.611 247.5 15.4 247 16.7
2004-03-11 08:14:29 51°13.877 2°37.592 248.2 15.4 247 17
2004-03-11 08:14:36 51°13.865 2°37.549 248.3 15.3 248 17.2
2004-03-11 08:14:40 51°13.859 2°37.524 248.6 15.2 248 17.4
2004-03-11 08:14:44 51°13.852 2°37.499 249.1 15.3 248 17.4
2004-03-11 08:14:50 51°13.843 2°37.462 248.9 15.1 247 17.5
2004-03-11 08:14:56 51°13.833 2°37.425 248.3 15.2 248 17.6
2004-03-11 08:15:00 51°13.827 2°37.4 249.2 15.2 248 17.4
2004-03-11 08:15:06 51°13.818 2°37.363 249.4 15.2 248 17.3
2004-03-11 08:15:10 51°13.811 2°37.339 248.7 15.1 246 17.3
2004-03-11 08:15:14 51°13.804 2°37.314 248.2 15.1 247 17.4
2004-03-11 08:15:21 51°13.793 2°37.272 248.5 15 248 17.6
2004-03-11 08:15:25 51°13.786 2°37.247 247.2 15.1 247 17.2
2004-03-11 08:15:30 51°13.779 2°37.216 248.3 15.1 248 17.1
2004-03-11 08:15:36 51°13.769 2°37.179 248.6 15.2 247 17.5
2004-03-11 08:15:40 51°13.762 2°37.155 248.6 15 247 17.1
2004-03-11 08:15:46 51°13.752 2°37.118 247.6 14.9 247 17.7
2004-03-11 08:15:50 51°13.746 2°37.094 247.5 15.1 246 17.5
2004-03-11 08:15:56 51°13.736 2°37.057 248.4 15.1 246 17.4
2004-03-11 08:16:00 51°13.729 2°37.033 247.5 14.9 247 17.5
2004-03-11 08:16:06 51°13.72 2°36.996 247.7 14.9 247 17.4
2004-03-11 08:16:10 51°13.714 2°36.971 248.2 15.2 246 18.1
2004-03-11 08:16:16 51°13.704 2°36.934 249.6 15 250 17.4
2004-03-11 08:16:20 51°13.698 2°36.91 249.2 15.1 248 17.7
2004-03-11 08:16:26 51°13.688 2°36.873 248.7 15.1 248 17.4
2004-03-11 08:16:30 51°13.682 2°36.848 248.5 15.1 248 17.3
2004-03-11 08:16:36 51°13.672 2°36.811 248.7 15.1 248 17.4
2004-03-11 08:16:40 51°13.666 2°36.785 249.2 15.1 247 17.5
2004-03-11 08:16:46 51°13.656 2°36.747 248.9 15.1 247 17.4
2004-03-11 08:16:50 51°13.65 2°36.722 249.5 15.3 250 17.7
2004-03-11 08:16:56 51°13.641 2°36.685 248.9 15.1 247 17.4
2004-03-11 08:17:00 51°13.635 2°36.66 248.8 15.4 249 17.6
2004-03-11 08:17:06 51°13.625 2°36.622 250 15.4 249 17.5
2004-03-11 08:17:10 51°13.619 2°36.598 250.3 15.1 248 17.3
2004-03-11 08:17:16 51°13.61 2°36.56 250 15.1 249 17.6
2004-03-11 08:17:20 51°13.603 2°36.535 249.5 15.1 249 17.3
2004-03-11 08:17:25 51°13.595 2°36.504 248.2 15.3 247 17.4
2004-03-11 08:17:30 51°13.587 2°36.473 247.9 15.2 248 17.3
2004-03-11 08:17:34 51°13.581 2°36.448 249.9 14.9 249 17.4
2004-03-11 08:17:41 51°13.569 2°36.405 248.3 14.9 247 17.1
2004-03-11 08:17:45 51°13.563 2°36.38 248.6 15.4 249 17
2004-03-11 08:17:50 51°13.555 2°36.349 249.1 15.1 246 17
2004-03-11 08:17:56 51°13.545 2°36.312 248.8 15 248 16.8
2004-03-11 08:18:00 51°13.539 2°36.287 248.9 15.2 248 16.7
2004-03-11 08:18:06 51°13.53 2°36.25 249.2 15.2 248 16.7
2004-03-11 08:18:10 51°13.523 2°36.226 249.2 15.1 247 16.6
2004-03-11 08:18:14 51°13.517 2°36.201 249.5 15.1 249 16.5
2004-03-11 08:18:21 51°13.506 2°36.157 249.5 15.1 249 16
2004-03-11 08:18:26 51°13.498 2°36.126 249.4 15.3 248 16.1
2004-03-11 08:18:30 51°13.492 2°36.102 250.2 15 247 15.9
2004-03-11 08:18:34 51°13.486 2°36.077 249.6 15.1 248 15.6
2004-03-11 08:18:41 51°13.475 2°36.033 249.3 15.2 248 15.8
2004-03-11 08:18:45 51°13.469 2°36.008 249.9 15 249 16
2004-03-11 08:18:50 51°13.46 2°35.978 249.6 15 248 16
2004-03-11 08:18:56 51°13.452 2°35.94 250 15.1 249 16.1
2004-03-11 08:19:01 51°13.443 2°35.91 250.1 15.1 246 16
2004-03-11 08:19:06 51°13.436 2°35.878 249.3 15.2 250 16.2
2004-03-11 08:19:10 51°13.429 2°35.854 249.8 15.1 249 16.3
2004-03-11 08:19:16 51°13.419 2°35.817 249.6 15 248 16.2
2004-03-11 08:19:20 51°13.413 2°35.793 248.9 15.1 247 15.9
2004-03-11 08:19:24 51°13.407 2°35.768 249.5 15.1 248 16.2
2004-03-11 08:19:30 51°13.396 2°35.731 248.5 15 246 16
2004-03-11 08:19:36 51°13.386 2°35.695 247.8 15 247 15.9
2004-03-11 08:19:41 51°13.377 2°35.665 246.5 15.1 245 15.9
2004-03-11 08:19:45 51°13.37 2°35.641 246.3 15.1 246 15.9
2004-03-11 08:19:50 51°13.361 2°35.611 245.7 14.9 243 15.9
2004-03-11 08:19:54 51°13.354 2°35.587 245.4 14.9 246 16
2004-03-11 08:20:00 51°13.342 2°35.552 243.7 15.2 243 15.8
2004-03-11 08:20:06 51°13.33 2°35.517 244.2 15.2 243 16
2004-03-11 08:20:10 51°13.323 2°35.493 242.8 14.9 241 15.9
2004-03-11 08:20:16 51°13.311 2°35.458 242.4 15 242 15.7
2004-03-11 08:20:20 51°13.302 2°35.435 241.9 15.1 240 15.9
2004-03-11 08:20:26 51°13.29 2°35.401 242.2 14.9 242 15.8
2004-03-11 08:20:30 51°13.281 2°35.379 241.6 14.7 239 15.8
2004-03-11 08:20:36 51°13.269 2°35.344 241 14.7 239 15.6
2004-03-11 08:20:40 51°13.26 2°35.321 240.5 15.1 238 15.7
2004-03-11 08:20:46 51°13.247 2°35.288 239.2 15 238 15.8
2004-03-11 08:20:50 51°13.239 2°35.266 238.6 14.7 238 15.7
2004-03-11 08:20:54 51°13.229 2°35.245 237.4 14.8 234 15.7
2004-03-11 08:21:00 51°13.215 2°35.212 236.5 14.9 235 15.6
2004-03-11 08:21:05 51°13.202 2°35.185 235.8 15 234 15.7
2004-03-11 08:21:10 51°13.19 2°35.158 234.8 14.9 234 15.6
2004-03-11 08:21:16 51°13.175 2°35.127 234.9 14.9 234 15.5
2004-03-11 08:21:21 51°13.163 2°35.1 234.5 14.8 234 15.6
2004-03-11 08:21:26 51°13.15 2°35.076 234 14.6 232 15.4
2004-03-11 08:21:30 51°13.14 2°35.055 231.2 15.1 231 15.4
2004-03-11 08:21:36 51°13.123 2°35.025 230.8 15.1 231 15.4
2004-03-11 08:21:40 51°13.112 2°35.007 228.6 14.9 229 15.6
2004-03-11 08:21:46 51°13.095 2°34.98 225.1 14.9 229 15.4
2004-03-11 08:21:50 51°13.083 2°34.961 224.8 14.7 225 15.6
2004-03-11 08:21:56 51°13.065 2°34.935 224 14.6 224 15.2
2004-03-11 08:22:00 51°13.052 2°34.917 221.3 15.3 222 15.5
2004-03-11 08:22:06 51°13.034 2°34.891 222.3 15.2 223 15.7
2004-03-11 08:22:10 51°13.021 2°34.877 219.5 14.1 218 15.5
2004-03-11 08:22:16 51°13.003 2°34.852 217.7 14.2 218 15.3
2004-03-11 08:22:20 51°12.99 2°34.836 218.3 14.7 217 15.3
2004-03-11 08:22:26 51°12.971 2°34.812 217.2 14.7 217 15.4
2004-03-11 08:22:30 51°12.958 2°34.797 216.9 14.4 218 15.2
2004-03-11 08:22:35 51°12.942 2°34.779 215.9 14.3 215 15.4
2004-03-11 08:22:40 51°12.926 2°34.759 215.4 14.5 217 15
2004-03-11 08:22:44 51°12.913 2°34.744 215.7 14.5 216 14.8
2004-03-11 08:22:50 51°12.894 2°34.72 216.9 14.7 218 14.9
2004-03-11 08:22:56 51°12.875 2°34.697 217 14.7 218 14.6
2004-03-11 08:23:00 51°12.862 2°34.683 215.7 14.1 216 14.3
2004-03-11 08:23:06 51°12.843 2°34.659 215.6 14.4 218 14
2004-03-11 08:23:10 51°12.83 2°34.643 217 14.6 218 13.6
2004-03-11 08:23:16 51°12.811 2°34.62 217.1 14.4 218 13.2
2004-03-11 08:23:21 51°12.796 2°34.601 217 14.2 218 12.9
2004-03-11 08:23:26 51°12.78 2°34.582 217.6 14.3 218 12.4
2004-03-11 08:23:30 51°12.767 2°34.566 216.7 14.5 218 12.3
2004-03-11 08:23:36 51°12.748 2°34.545 216.6 14.3 217 11.8
2004-03-11 08:23:40 51°12.735 2°34.529 215.5 14.2 218 11.7
2004-03-11 08:23:46 51°12.717 2°34.505 217.1 14.3 220 11.5
2004-03-11 08:23:50 51°12.704 2°34.49 218.9 14.3 219 11.4
2004-03-11 08:23:56 51°12.686 2°34.465 217.2 14.5 220 11.3
2004-03-11 08:24:01 51°12.67 2°34.446 218 14.4 219 11.3
2004-03-11 08:24:06 51°12.655 2°34.426 218.5 14.4 219 11.3
2004-03-11 08:24:10 51°12.642 2°34.41 217.7 14.4 218 11.4
2004-03-11 08:24:16 51°12.623 2°34.386 217.7 14.6 219 11.3
2004-03-11 08:24:20 51°12.61 2°34.371 217.6 14.6 218 11.6
2004-03-11 08:24:25 51°12.595 2°34.353 215.6 13.8 217 11.8
2004-03-11 08:24:30 51°12.581 2°34.336 215.5 13.2 217 12.1
2004-03-11 08:24:36 51°12.564 2°34.318 214.6 12.1 215 12.5
2004-03-11 08:24:41 51°12.552 2°34.306 212.4 10.8 212 12.7
2004-03-11 08:24:46 51°12.54 2°34.295 209.6 10.1 210 12.9
2004-03-11 08:24:50 51°12.531 2°34.288 205.7 9.2 207 13.3
2004-03-11 08:24:56 51°12.518 2°34.28 200.4 9.2 207 13.2
2004-03-11 08:25:00 51°12.51 2°34.275 196.6 8.3 202 13.3
2004-03-11 08:25:05 51°12.501 2°34.271 192.2 8.3 202 13.7
2004-03-11 08:25:10 51°12.491 2°34.267 188 7.1 195 13.7
2004-03-11 08:25:16 51°12.481 2°34.265 184.2 6.6 193 13.8
2004-03-11 08:25:20 51°12.475 2°34.263 180.8 6 191 13.9
2004-03-11 08:25:26 51°12.466 2°34.261 178.1 5.6 187 14
2004-03-11 08:25:30 51°12.46 2°34.26 176.6 5.5 189 14
2004-03-11 08:25:36 51°12.452 2°34.258 175.3 5.1 186 14
2004-03-11 08:25:40 51°12.447 2°34.257 174.6 5 188 14.3
2004-03-11 08:25:46 51°12.439 2°34.255 173.2 5 188 14.2
2004-03-11 08:25:50 51°12.435 2°34.254 172.7 4.3 186 14.2
2004-03-11 08:25:56 51°12.428 2°34.253 171.8 4.1 189 14.3
2004-03-11 08:26:00 51°12.424 2°34.252 170.9 4 188 14.2
2004-03-11 08:26:04 51°12.42 2°34.251 171 3.9 189 14.3
2004-03-11 08:26:10 51°12.413 2°34.249 170 3.7 189 14.3
2004-03-11 08:26:16 51°12.408 2°34.248 169.8 3.6 188 14.3
2004-03-11 08:26:20 51°12.404 2°34.247 169.9 3.4 188 14.4
2004-03-11 08:26:25 51°12.399 2°34.245 169.5 3.4 192 14.5
2004-03-11 08:26:30 51°12.395 2°34.244 169 3.2 189 14.5
2004-03-11 08:26:36 51°12.39 2°34.242 169.1 3.2 192 14.6
2004-03-11 08:26:40 51°12.387 2°34.241 169 3 191 14.6
2004-03-11 08:26:46 51°12.382 2°34.239 169 3 193 14.6
2004-03-11 08:26:50 51°12.379 2°34.238 169.2 2.9 193 14.7
2004-03-11 08:26:56 51°12.374 2°34.236 169.2 2.8 195 14.8
2004-03-11 08:27:01 51°12.371 2°34.234 169.6 2.7 197 14.8
2004-03-11 08:27:06 51°12.367 2°34.232 169.8 2.7 197 14.9
2004-03-11 08:27:10 51°12.364 2°34.231 170.2 2.7 199 15
2004-03-11 08:27:16 51°12.36 2°34.228 170.2 2.6 199 14.9
2004-03-11 08:27:20 51°12.358 2°34.227 170.5 2.5 200 15
2004-03-11 08:27:26 51°12.354 2°34.224 170.6 2.6 202 15.1
2004-03-11 08:27:30 51°12.351 2°34.223 170.9 2.5 202 15.2
2004-03-11 08:27:36 51°12.348 2°34.22 171 2.4 201 15.3
2004-03-11 08:27:40 51°12.345 2°34.219 171.2 2.3 200 15.2
2004-03-11 08:27:46 51°12.342 2°34.216 171.6 2.4 207 15.3
2004-03-11 08:27:50 51°12.34 2°34.214 171.5 2.3 207 15.3
2004-03-11 08:27:56 51°12.336 2°34.212 172 2.4 209 15.3
2004-03-11 08:28:00 51°12.334 2°34.209 172.3 2.3 211 15.3
2004-03-11 08:28:06 51°12.331 2°34.207 172.7 2.2 211 15.3
2004-03-11 08:28:10 51°12.329 2°34.205 173.3 2.2 213 15.3
2004-03-11 08:28:16 51°12.326 2°34.202 173.8 2.2 211 15.3
2004-03-11 08:28:21 51°12.323 2°34.199 174.8 2.1 212 15.3
2004-03-11 08:28:25 51°12.321 2°34.197 175.4 2.2 215 15.2
2004-03-11 08:28:28 51°12.32 2°34.195 176.1 2.1 213 15.4
2004-03-11 08:28:34 51°12.317 2°34.192 177 2.1 218 15.4
2004-03-11 08:28:40 51°12.314 2°34.188 177.2 2.1 219 15.5
2004-03-11 08:28:45 51°12.312 2°34.185 177.9 2.1 217 15.6
2004-03-11 08:28:51 51°12.309 2°34.182 178.7 2.1 220 15.4
2004-03-11 08:28:56 51°12.307 2°34.179 179.4 2.1 221 15.5
2004-03-11 08:29:00 51°12.306 2°34.177 180 2 221 15.5
2004-03-11 08:29:06 51°12.303 2°34.173 180.7 2.1 223 15.4
2004-03-11 08:29:10 51°12.301 2°34.17 181.4 2 222 15.5
2004-03-11 08:29:16 51°12.299 2°34.167 181.9 2.1 226 15.5
2004-03-11 08:29:20 51°12.297 2°34.164 182.2 2.2 218 15.5
2004-03-11 08:29:26 51°12.294 2°34.16 183.2 2.3 218 15.6
2004-03-11 08:29:30 51°12.291 2°34.158 184.6 2.7 216 15.6
2004-03-11 08:29:36 51°12.288 2°34.154 186.6 2.7 216 15.6
2004-03-11 08:29:40 51°12.285 2°34.151 188.6 2.9 216 15.6
2004-03-11 08:29:45 51°12.282 2°34.147 190.1 2.9 213 15.6
2004-03-11 08:29:50 51°12.278 2°34.143 191.4 3.1 215 15.6
2004-03-11 08:29:56 51°12.274 2°34.139 192.4 3 214 15.7
2004-03-11 08:30:01 51°12.27 2°34.134 193.8 3.2 215 15.6
2004-03-11 08:30:06 51°12.267 2°34.13 194.8 3.2 215 15.5
2004-03-11 08:30:10 51°12.263 2°34.127 195.5 3.4 217 15.7
2004-03-11 08:30:16 51°12.259 2°34.121 197 3.4 220 15.7
2004-03-11 08:30:21 51°12.255 2°34.116 198 3.6 221 15.7
2004-03-11 08:30:25 51°12.252 2°34.113 199 3.6 214 15.6
2004-03-11 08:30:30 51°12.247 2°34.107 200.3 3.8 219 15.7
2004-03-11 08:30:36 51°12.242 2°34.101 201.4 3.9 217 15.7
2004-03-11 08:30:40 51°12.239 2°34.096 202.4 4.1 219 15.8
2004-03-11 08:30:46 51°12.233 2°34.09 202.5 4 216 15.8
2004-03-11 08:30:50 51°12.23 2°34.086 203.2 4.1 220 15.7
2004-03-11 08:30:56 51°12.224 2°34.079 203.6 4 217 15.8
2004-03-11 08:31:01 51°12.22 2°34.073 203.8 4 218 15.8
2004-03-11 08:31:06 51°12.216 2°34.068 204.3 4.1 218 15.8
2004-03-11 08:31:10 51°12.212 2°34.063 204.4 4.1 219 15.8
2004-03-11 08:31:16 51°12.207 2°34.056 204.9 4.1 219 15.8
2004-03-11 08:31:20 51°12.203 2°34.052 204.9 4.1 220 15.8
2004-03-11 08:31:26 51°12.198 2°34.045 205.4 4.1 222 15.8
2004-03-11 08:31:30 51°12.195 2°34.04 205.9 4 218 15.9
2004-03-11 08:31:36 51°12.189 2°34.033 206.6 4 218 15.8
2004-03-11 08:31:41 51°12.185 2°34.027 206.7 4 220 15.8
2004-03-11 08:31:46 51°12.181 2°34.021 207 4.1 224 15.8
2004-03-11 08:31:50 51°12.178 2°34.016 207.1 4 219 15.8
2004-03-11 08:31:56 51°12.173 2°34.01 207.8 4.2 225 15.9
2004-03-11 08:32:00 51°12.169 2°34.004 207.7 4 219 15.8
2004-03-11 08:32:05 51°12.165 2°33.999 207.9 4 221 15.9
2004-03-11 08:32:10 51°12.161 2°33.992 208.6 4.1 223 15.7
2004-03-11 08:32:16 51°12.156 2°33.984 209 4 222 15.8
2004-03-11 08:32:21 51°12.152 2°33.979 210 4 222 15.9
2004-03-11 08:32:26 51°12.148 2°33.972 211.1 4.1 227 15.8
2004-03-11 08:32:30 51°12.145 2°33.967 211.9 4.1 224 15.8
2004-03-11 08:32:34 51°12.142 2°33.962 212.9 4.1 227 15.7
2004-03-11 08:32:40 51°12.137 2°33.954 214.1 4.1 227 15.8
2004-03-11 08:32:46 51°12.133 2°33.945 215.3 4.1 227 15.8
2004-03-11 08:32:50 51°12.13 2°33.94 216.7 4.1 229 15.6
2004-03-11 08:32:56 51°12.126 2°33.931 217.7 4.1 229 15.8
2004-03-11 08:33:01 51°12.122 2°33.924 218.8 4.1 229 15.8
2004-03-11 08:33:06 51°12.119 2°33.917 220.1 4.2 234 15.9
2004-03-11 08:33:10 51°12.116 2°33.911 221.3 4.2 230 15.9
2004-03-11 08:33:16 51°12.112 2°33.902 222.6 4.2 237 15.9
2004-03-11 08:33:21 51°12.108 2°33.894 224 4.1 232 15.9
2004-03-11 08:33:26 51°12.105 2°33.887 225.5 4.3 239 15.9
2004-03-11 08:33:30 51°12.102 2°33.88 226 4.2 236 16
2004-03-11 08:33:36 51°12.099 2°33.871 227.1 4.2 239 15.9
2004-03-11 08:33:40 51°12.096 2°33.865 228.4 4.2 239 16
2004-03-11 08:33:44 51°12.094 2°33.858 229.5 4.2 240 16.1
2004-03-11 08:33:50 51°12.09 2°33.849 230.6 4.2 240 16
2004-03-11 08:33:56 51°12.087 2°33.839 231.6 4.2 240 16.2
2004-03-11 08:34:00 51°12.085 2°33.832 233.2 4.2 240 16.2
2004-03-11 08:34:06 51°12.081 2°33.823 234.6 4.2 240 16.2
2004-03-11 08:34:10 51°12.079 2°33.816 235.1 4.2 240 16.3
2004-03-11 08:34:16 51°12.076 2°33.806 235.3 4.2 242 16.2
2004-03-11 08:34:20 51°12.074 2°33.8 235.5 4.2 243 16.3
2004-03-11 08:34:24 51°12.072 2°33.793 235.2 4.2 242 16.3
2004-03-11 08:34:30 51°12.069 2°33.783 235.1 4.1 242 16.3
2004-03-11 08:34:36 51°12.066 2°33.774 234.7 4.1 242 16.3
2004-03-11 08:34:41 51°12.063 2°33.766 234 4.1 242 16.3
2004-03-11 08:34:45 51°12.061 2°33.759 233.6 4.1 241 16.3
2004-03-11 08:34:50 51°12.058 2°33.752 232.8 4.1 241 16.3
2004-03-11 08:34:56 51°12.055 2°33.742 232.2 4 241 16.4
2004-03-11 08:35:00 51°12.053 2°33.736 232.1 4 240 16.4
2004-03-11 08:35:06 51°12.049 2°33.727 231.2 4 241 16.3
2004-03-11 08:35:10 51°12.047 2°33.721 230.5 4 240 16.5
2004-03-11 08:35:16 51°12.044 2°33.712 230.1 3.9 238 16.5
2004-03-11 08:35:21 51°12.041 2°33.704 229.3 4 240 16.5
2004-03-11 08:35:26 51°12.038 2°33.697 229 4 240 16.4
2004-03-11 08:35:30 51°12.036 2°33.691 228.7 4 240 16.5
2004-03-11 08:35:36 51°12.033 2°33.682 228.3 3.9 238 16.6
2004-03-11 08:35:41 51°12.03 2°33.675 228.5 3.9 238 16.6
2004-03-11 08:35:46 51°12.027 2°33.667 228.2 3.9 238 16.7
2004-03-11 08:35:50 51°12.024 2°33.662 228.1 3.9 238 16.7
2004-03-11 08:35:56 51°12.021 2°33.653 228.1 3.9 239 16.7
2004-03-11 08:36:00 51°12.019 2°33.647 228.3 4 240 16.8
2004-03-11 08:36:06 51°12.015 2°33.638 228.9 3.9 236 16.7
2004-03-11 08:36:10 51°12.013 2°33.632 229.1 3.9 240 16.8
2004-03-11 08:36:16 51°12.01 2°33.623 229 3.9 240 16.8
2004-03-11 08:36:21 51°12.007 2°33.616 229 3.9 237 16.8
2004-03-11 08:36:26 51°12.004 2°33.608 228.8 3.9 237 16.9
2004-03-11 08:36:30 51°12.002 2°33.603 228.8 4 240 16.9
2004-03-11 08:36:36 51°11.998 2°33.594 228.3 3.9 238 16.8
2004-03-11 08:36:40 51°11.996 2°33.588 227.9 3.9 237 16.9
2004-03-11 08:36:45 51°11.993 2°33.581 227.5 3.9 237 16.9
2004-03-11 08:36:50 51°11.99 2°33.574 227.1 3.9 237 17
2004-03-11 08:36:56 51°11.987 2°33.565 226.7 3.9 237 17
2004-03-11 08:37:00 51°11.984 2°33.56 226.7 3.9 237 16.9
2004-03-11 08:37:06 51°11.981 2°33.551 225.7 3.9 237 16.9
2004-03-11 08:37:10 51°11.978 2°33.546 225.4 3.8 234 16.9
2004-03-11 08:37:16 51°11.975 2°33.537 225.1 3.8 234 17
2004-03-11 08:37:20 51°11.972 2°33.532 224.8 3.9 233 17
2004-03-11 08:37:24 51°11.97 2°33.526 224.4 3.9 237 17
2004-03-11 08:37:30 51°11.966 2°33.517 223.8 3.9 236 16.9
2004-03-11 08:37:36 51°11.962 2°33.509 223.7 3.9 234 17
2004-03-11 08:37:40 51°11.959 2°33.503 223.7 3.9 234 17
2004-03-11 08:37:45 51°11.956 2°33.496 223.5 4 235 16.9
2004-03-11 08:37:50 51°11.953 2°33.489 223.3 4 232 17
2004-03-11 08:37:56 51°11.949 2°33.481 223.4 4 234 17
2004-03-11 08:38:00 51°11.946 2°33.475 223.4 3.9 233 17.1
2004-03-11 08:38:06 51°11.942 2°33.467 223.2 4 232 17.1
2004-03-11 08:38:10 51°11.94 2°33.461 222.8 4 233 17.1